LFMNLGAV

Guest
Details From LFMN - Nice/Cote d'Azur
To LGAV - Athens Intl Airport Elefterios Venizel
Flight Number -
Tags decoded
Created
Modified
Stats Distance 843 nm / 1,562 km
Max Altitude 0 ft / 0 m
Waypoints 6
Social Downloads 2
Likes 0
Share VATSIM

Download

Looking for another format? Having issues loading an existing format? Contact us
Advertisement - Login to hide

Notes

Requested: LFMN SODRI UM728 DOKAR UN604 RILIN LGAV Unmatched points: UN604

Route

LFMN SODRI UM728 DOKAR RILIN LGAV

ID Type Via Altitude Latitude Longitude Leg Dist Tot Dist Heading (true) Name
O LFMN APT - 0 ft / 0 m 43.65798˚ 7.21536˚ - 0 nm - Nice/Cote d'Azur
SODRI FIX - 0 ft / 0 m 43.01306˚ 8.37194˚ 63 nm 63 nm 127° / 128° -
BTA VOR UM728 (AWY-HI) 0 ft / 0 m 42.57369˚ 9.47459˚ 55 nm 118 nm 118° / 119° BASTIA PORETTA VOR-DME
DOKAR FIX UM728 (AWY-HI) 0 ft / 0 m 42.50083˚ 9.75000˚ 12 nm 131 nm 110° / 110° -
RILIN FIX - 0 ft / 0 m 37.96500˚ 22.66667˚ 650 nm 782 nm 110° / 119° -
O LGAV APT - 0 ft / 0 m 37.93636˚ 23.94447˚ 60 nm 843 nm 91° / 92° Athens Intl Airport Elefterios Venizel

Altitude Profile

Advertisement - Login to hide

Weather


0- 5 10 15 20 25 30 35+ Temperature / ° C

Clouds and Precipitation
Forecast for 2017-12-13 18:00 UTC. Updated 2 hours ago

Ground ~20,000 ft ~40,000 ft Winds

LFMN

Details ICAO LFMN (NCE)
Name Nice/Cote d'Azur
Region France
Timezone Unknown (UTC+0.0)
Stats Elevation 12 ft / 4 m (AMSL)
Location 43.657981° 7.215362°
Runways 2
Magnetic Variation 2.016° E

METAR

LFMN 131900Z 31005KT 270V350 9999 FEW100 09/M00 Q1015 NOSIG

Decode

TAF

TAF TAF LFMN 131400Z 1315/1421 22010KT 9999 FEW080 BECMG 1318/1320 25015G30KT CAVOK TEMPO 1321/1408 25025G35KT

Decode

Departure Runways

ID Width Length Bearing (true) Bearing (mag) Surface Threshold Offset Overrun Length
04L 148 ft / 45 m 8,427 ft / 2,569 m 44.85° 42.83° Asphalt 0 ft / 0 m 131 ft / 40 m
04R 148 ft / 45 m 9,720 ft / 2,963 m 44.60° 42.58° Asphalt 0 ft / 0 m 427 ft / 130 m
22L 148 ft / 45 m 9,720 ft / 2,963 m 224.62° 222.60° Asphalt 0 ft / 0 m 525 ft / 160 m
22R 148 ft / 45 m 8,427 ft / 2,569 m 224.87° 222.85° Asphalt 0 ft / 0 m 492 ft / 150 m

LGAV

Details ICAO LGAV (ATH)
Name Athens Intl Airport Elefterios Venizel
Region Greece
Timezone Europe/Athens (UTC+2.0)
Stats Elevation 308 ft / 94 m (AMSL)
Location 37.936357° 23.944470°
Runways 2
Magnetic Variation 4.484° E

METAR

LGAV 131850Z VRB02KT CAVOK 14/06 Q1019 NOSIG

Decode

TAF

TAF LGAV 131700Z 1318/1418 25008KT 9999 FEW025= TAF LGEL 131700Z 1318/1418 26010KT 9999 FEW025 BECMG 1319/1321 VRB05KT

Decode

Destination Runways

ID Width Length Bearing (true) Bearing (mag) Surface Threshold Offset Overrun Length
03L 148 ft / 45 m 12,474 ft / 3,802 m 36.51° 32.03° Asphalt 984 ft / 300 m 393 ft / 120 m
03R 148 ft / 45 m 13,131 ft / 4,002 m 36.52° 32.04° Asphalt 984 ft / 300 m 393 ft / 120 m
21L 148 ft / 45 m 13,131 ft / 4,002 m 216.54° 212.06° Asphalt 984 ft / 300 m 393 ft / 120 m
21R 148 ft / 45 m 12,474 ft / 3,802 m 216.53° 212.05° Asphalt 984 ft / 300 m 393 ft / 120 m

Approach Navaids

Runway Type Ident Frequency Range Bearing (true) Bearing (mag) Slope Elevation
03L Localiser IATL 110.50 MHz 18 nm / 33 km 36.52° 32.04° - 282 ft / 86 m (AMSL)
03L Glidescope IATL 110.50 MHz 10 nm / 19 km 36.52° 32.03° 3.00° 255 ft / 78 m (AMSL)
03L DME IATL 110.50 MHz 18 nm / 33 km - - - 255 ft / 78 m (AMSL)
03R Localiser IATR 111.10 MHz 18 nm / 33 km 36.97° 32.49° - 302 ft / 92 m (AMSL)
03R Glidescope IATR 111.10 MHz 10 nm / 19 km 36.53° 32.05° 3.00° 271 ft / 83 m (AMSL)
21L Localiser IEVL 111.10 MHz 18 nm / 33 km 216.52° 212.04° - 271 ft / 83 m (AMSL)
21L Glidescope IEVL 111.10 MHz 10 nm / 19 km 216.53° 212.05° 3.00° 302 ft / 92 m (AMSL)
21L DME IEVL 111.10 MHz 18 nm / 33 km - - - 303 ft / 92 m (AMSL)
21R Localiser IEVR 110.50 MHz 18 nm / 33 km 216.50° 212.02° - 255 ft / 78 m (AMSL)
21R Glidescope IEVR 110.50 MHz 10 nm / 19 km 216.52° 212.03° 3.00° 282 ft / 86 m (AMSL)
21R DME IEVR 110.50 MHz 18 nm / 33 km - - - 282 ft / 86 m (AMSL)

Popular Alternatives